Perry, Louisiana
Current Conditions -  °F | °C
As of 2:10 PM on Thursday 30 Oct 2014 (Local Time) from KIYA Reporting Station
Clear Clear  
Wind Chill: 24°   Ceiling: Unl
Heat Index: 24°   Visibility: 10mi
Dew Point:   Wind: 7mph
Humidity: 33%   Direction: 350°N
Pressure: 30.07"   Gusts: NA
Location:  29.95°N, 92.16°W
Report Text: KIYA 301910Z AUTO 35006KT 10SM CLR 24/07 A3007 RMK AO2 T02360066
Loading
Personal Weather Stations






























Interactive Weather Map
Tropical Storm Tracking
New forecast layout! Learn more

10-Day Weather Forecast

Advertisements
Track Severe Weather on mobile